Terminal Aerodrome Forecast
Issued by NWS Wilmington, OH

Current Version | Previous Version | Graphics & Text | Print | Product List | Glossary On
Versions: 1 2 3 4 5 6 7 8 9 10 11 12 13 14
000
FTUS41 KILN 151100
TAFCMH
TAF
KCMH 151125Z 1512/1612 33014G22KT 4SM -SN OVC012
      TEMPO 1512/1514 2SM -SN OVC008
     FM151400 32014G22KT P6SM OVC015
     FM151700 31014G22KT P6SM BKN025
     FM151900 31012G20KT P6SM BKN040
     FM160100 VRB03KT P6SM SKC=

USA.gov is the U.S. government's official web portal to all federal, state and local government web resources and services.